createdAt,value
2018-06-25T00:01:30.949Z,6.53
2018-06-25T00:03:58.916Z,6.60
2018-06-25T00:06:26.937Z,6.63
2018-06-25T00:08:54.974Z,7.13
2018-06-25T00:11:23.065Z,6.10
2018-06-25T00:13:51.073Z,7.40
2018-06-25T00:16:19.093Z,6.60
2018-06-25T00:18:47.088Z,6.37
2018-06-25T00:21:15.082Z,7.10
2018-06-25T00:23:43.085Z,7.10
2018-06-25T00:26:11.124Z,6.63
2018-06-25T00:28:39.176Z,7.07
2018-06-25T00:31:07.197Z,7.27
2018-06-25T00:33:35.187Z,7.20
2018-06-25T00:36:03.188Z,6.50
2018-06-25T00:38:31.194Z,7.90
2018-06-25T00:40:59.184Z,7.20
2018-06-25T00:43:27.196Z,7.43
2018-06-25T00:45:55.197Z,7.60
2018-06-25T00:48:23.196Z,8.27
2018-06-25T00:50:51.176Z,7.10
2018-06-25T00:53:19.177Z,7.60
2018-06-25T00:55:47.223Z,7.77
2018-06-25T00:58:15.266Z,7.90
2018-06-25T01:00:43.236Z,7.50
2018-06-25T01:03:11.256Z,7.53
2018-06-25T01:05:39.258Z,7.80
2018-06-25T01:08:07.305Z,8.07
2018-06-25T01:10:35.296Z,7.80
2018-06-25T01:13:03.313Z,7.50
2018-06-25T01:15:31.308Z,8.80
2018-06-25T01:17:59.308Z,8.47
2018-06-25T01:20:27.968Z,7.50
2018-06-25T01:22:55.965Z,7.60
2018-06-25T01:25:23.952Z,9.33
2018-06-25T01:27:51.968Z,8.20
2018-06-25T01:30:19.965Z,7.13
2018-06-25T01:32:47.980Z,7.40
2018-06-25T01:35:15.988Z,8.00
2018-06-25T01:37:44.017Z,8.80
2018-06-25T01:40:12.016Z,7.70
2018-06-25T01:42:40.001Z,7.90
2018-06-25T01:45:07.985Z,7.50
2018-06-25T01:47:35.968Z,9.60
2018-06-25T01:50:03.989Z,7.60
2018-06-25T01:52:31.992Z,9.77
2018-06-25T01:55:00.052Z,10.30
2018-06-25T01:57:28.057Z,9.90
2018-06-25T01:59:56.064Z,9.20
2018-06-25T02:02:24.044Z,9.03
2018-06-25T02:04:52.049Z,10.57
2018-06-25T02:07:20.080Z,10.33
2018-06-25T02:09:48.111Z,9.57
2018-06-25T02:12:16.102Z,9.57
2018-06-25T02:14:44.313Z,10.10
2018-06-25T02:17:12.338Z,9.67
2018-06-25T02:19:40.329Z,10.27
2018-06-25T02:22:08.312Z,9.57
2018-06-25T02:24:36.313Z,9.70
2018-06-25T02:27:04.336Z,11.10
2018-06-25T02:29:33.168Z,10.67
2018-06-25T02:32:01.183Z,10.50
2018-06-25T02:34:29.249Z,10.60
2018-06-25T02:36:57.296Z,9.73
2018-06-25T02:39:25.317Z,11.33
2018-06-25T02:41:53.310Z,10.47
2018-06-25T02:44:21.349Z,11.10
2018-06-25T02:46:49.372Z,9.90
2018-06-25T02:49:17.404Z,11.97
2018-06-25T02:51:45.381Z,9.63
2018-06-25T02:54:13.380Z,11.47
2018-06-25T02:56:41.387Z,10.20
2018-06-25T02:59:09.529Z,12.00
2018-06-25T03:01:37.470Z,10.73
2018-06-25T03:04:05.598Z,11.30
2018-06-25T03:06:33.593Z,11.43
2018-06-25T03:09:01.588Z,11.60
2018-06-25T03:11:29.577Z,12.00
2018-06-25T03:13:57.599Z,11.40
2018-06-25T03:16:25.665Z,11.17
2018-06-25T03:21:33.124Z,12.20
2018-06-25T03:24:01.129Z,13.17
2018-06-25T03:26:29.352Z,13.17
2018-06-25T03:28:57.381Z,12.70
2018-06-25T03:31:25.388Z,12.13
2018-06-25T03:33:53.413Z,12.17
2018-06-25T03:36:21.443Z,13.47
2018-06-25T03:38:49.443Z,14.30
2018-06-25T03:41:17.430Z,13.47
2018-06-25T03:43:45.481Z,14.30
2018-06-25T03:46:13.489Z,13.70
2018-06-25T03:48:41.534Z,12.67
2018-06-25T03:51:09.546Z,14.47
2018-06-25T03:53:37.552Z,15.00
2018-06-25T03:56:05.607Z,14.17
2018-06-25T03:58:33.621Z,14.27
2018-06-25T04:01:01.676Z,15.13
2018-06-25T04:03:29.656Z,14.90
2018-06-25T04:05:57.890Z,17.80
2018-06-25T04:08:25.932Z,15.77
2018-06-25T04:10:53.965Z,13.63
2018-06-25T04:13:22.058Z,14.77
2018-06-25T04:15:50.062Z,14.50
2018-06-25T04:18:18.212Z,15.33
2018-06-25T04:20:46.301Z,14.40
2018-06-25T04:23:14.278Z,14.87
2018-06-25T04:25:42.296Z,14.57
2018-06-25T04:28:10.291Z,15.97
2018-06-25T04:30:38.319Z,18.43
2018-06-25T04:33:06.300Z,17.07
2018-06-25T04:35:34.308Z,16.00
2018-06-25T04:38:02.461Z,17.00
2018-06-25T04:40:30.485Z,17.50
2018-06-25T04:42:58.473Z,16.20
2018-06-25T04:45:26.501Z,16.50
2018-06-25T04:47:54.525Z,16.47
2018-06-25T04:50:22.543Z,15.30
2018-06-25T04:52:50.546Z,15.80
2018-06-25T04:55:18.548Z,14.00
2018-06-25T04:57:46.532Z,15.97
2018-06-25T05:00:14.572Z,15.10
2018-06-25T05:02:42.619Z,13.50
2018-06-25T05:05:10.621Z,15.33
2018-06-25T05:07:38.593Z,14.60
2018-06-25T05:10:06.604Z,12.90
2018-06-25T05:12:34.581Z,13.57
2018-06-25T05:15:02.688Z,13.00
2018-06-25T05:17:30.733Z,13.10
2018-06-25T05:19:58.804Z,12.53
2018-06-25T05:22:26.839Z,11.50
2018-06-25T05:24:54.921Z,11.23
2018-06-25T05:27:23.030Z,12.60
2018-06-25T05:29:51.195Z,11.77
2018-06-25T05:32:19.225Z,11.13
2018-06-25T05:34:47.224Z,11.33
2018-06-25T05:37:15.245Z,11.30
2018-06-25T05:39:43.286Z,10.17
2018-06-25T05:42:15.464Z,10.80
2018-06-25T05:44:43.501Z,11.70
2018-06-25T05:47:11.530Z,10.27
2018-06-25T05:49:39.539Z,11.30
2018-06-25T05:52:07.716Z,9.90
2018-06-25T05:54:35.764Z,10.00
2018-06-25T05:57:03.755Z,11.00
2018-06-25T05:59:31.766Z,11.17
2018-06-25T06:01:59.773Z,11.50
2018-06-25T06:04:27.794Z,9.17
2018-06-25T06:06:55.798Z,8.67
2018-06-25T06:09:23.809Z,9.07
2018-06-25T06:11:51.844Z,9.43
2018-06-25T06:14:19.837Z,9.70
2018-06-25T06:16:47.841Z,9.00
2018-06-25T06:19:15.824Z,9.23
2018-06-25T06:21:43.826Z,8.73
2018-06-25T06:24:11.826Z,9.60
2018-06-25T06:26:39.845Z,8.30
2018-06-25T06:29:07.864Z,7.70
2018-06-25T06:31:35.916Z,8.27
2018-06-25T06:34:03.942Z,7.30
2018-06-25T06:36:31.970Z,10.40
2018-06-25T06:38:59.975Z,8.00
2018-06-25T06:41:27.993Z,7.77
2018-06-25T06:43:56.022Z,7.60
2018-06-25T06:46:24.052Z,7.97
2018-06-25T06:48:52.040Z,8.60
2018-06-25T06:51:20.045Z,8.67
2018-06-25T06:53:48.030Z,7.77
2018-06-25T06:56:16.077Z,8.47
2018-06-25T06:58:44.098Z,6.87
2018-06-25T07:01:12.114Z,7.63
2018-06-25T07:03:40.101Z,8.00
2018-06-25T07:06:08.147Z,7.33
2018-06-25T07:08:36.148Z,7.57
2018-06-25T07:11:04.469Z,8.27
2018-06-25T07:13:33.761Z,8.03
2018-06-25T07:16:01.834Z,7.30
2018-06-25T07:18:29.821Z,7.67
2018-06-25T07:20:57.804Z,7.47
2018-06-25T07:23:25.794Z,6.53
2018-06-25T07:25:53.805Z,6.17
2018-06-25T07:28:21.965Z,5.30
2018-06-25T07:30:50.020Z,6.57
2018-06-25T07:33:18.009Z,6.50
2018-06-25T07:35:46.013Z,5.50
2018-06-25T07:38:14.051Z,6.00
2018-06-25T07:40:42.045Z,5.30
2018-06-25T07:43:10.402Z,5.60
2018-06-25T07:45:39.070Z,4.73
2018-06-25T07:48:07.077Z,4.93
2018-06-25T07:50:35.065Z,4.50
2018-06-25T07:53:03.112Z,3.90
2018-06-25T07:55:31.105Z,3.60
2018-06-25T07:57:59.109Z,3.50
2018-06-25T08:00:27.090Z,3.70
2018-06-25T08:02:55.089Z,4.20
2018-06-25T08:05:23.078Z,4.80
2018-06-25T08:07:51.131Z,4.30
2018-06-25T08:10:19.210Z,5.30
2018-06-25T08:12:47.930Z,4.70
2018-06-25T08:15:15.940Z,5.20
2018-06-25T08:17:43.965Z,5.40
2018-06-25T08:20:12.105Z,5.27
2018-06-25T08:22:40.150Z,6.77
2018-06-25T08:25:08.147Z,6.80
2018-06-25T08:27:36.179Z,6.80
2018-06-25T08:30:04.807Z,5.90
2018-06-25T08:32:32.801Z,6.80
2018-06-25T08:35:00.797Z,8.63
2018-06-25T08:37:29.372Z,8.13
2018-06-25T08:39:57.385Z,7.13
2018-06-25T08:42:25.380Z,7.40
2018-06-25T08:44:53.388Z,6.90
2018-06-25T08:47:21.404Z,7.40
2018-06-25T08:49:49.412Z,6.87
2018-06-25T08:52:17.419Z,7.00
2018-06-25T08:54:45.437Z,7.63
2018-06-25T08:57:13.441Z,6.90
2018-06-25T08:59:41.424Z,7.33
2018-06-25T09:02:09.416Z,6.83
2018-06-25T09:04:37.433Z,7.30
2018-06-25T09:07:05.475Z,7.17
2018-06-25T09:09:33.545Z,7.07
2018-06-25T09:12:01.478Z,7.60
2018-06-25T09:14:29.488Z,7.23
2018-06-25T09:16:57.600Z,7.27
2018-06-25T09:19:25.606Z,6.20
2018-06-25T09:21:53.667Z,7.03
2018-06-25T09:24:21.666Z,5.93
2018-06-25T09:26:49.661Z,5.50
2018-06-25T09:29:17.665Z,6.03
2018-06-25T09:31:45.753Z,5.97
2018-06-25T09:34:19.219Z,5.40
2018-06-25T09:36:47.207Z,5.00
2018-06-25T09:39:15.298Z,4.87
2018-06-25T09:41:43.613Z,5.10
2018-06-25T09:44:11.748Z,4.73
2018-06-25T09:46:40.037Z,5.20
2018-06-25T09:49:08.049Z,5.60
2018-06-25T09:51:36.061Z,5.20
2018-06-25T09:54:04.081Z,5.53
2018-06-25T09:56:32.089Z,6.30
2018-06-25T09:59:00.106Z,5.90
2018-06-25T10:01:28.152Z,6.40
2018-06-25T10:03:56.151Z,6.23
2018-06-25T10:06:24.145Z,8.20
2018-06-25T10:08:52.175Z,7.90
2018-06-25T10:11:20.189Z,6.57
2018-06-25T10:13:48.216Z,6.57
2018-06-25T10:16:16.209Z,7.87
2018-06-25T10:18:44.249Z,6.50
2018-06-25T10:21:12.487Z,6.67
2018-06-25T10:23:40.444Z,6.30
2018-06-25T10:26:08.761Z,5.73
2018-06-25T10:28:37.295Z,6.47
2018-06-25T10:31:05.309Z,5.50
2018-06-25T10:33:33.349Z,6.13
2018-06-25T10:36:01.344Z,5.73
2018-06-25T10:38:29.385Z,5.20
2018-06-25T10:40:57.409Z,7.00
2018-06-25T10:43:25.453Z,7.83
2018-06-25T10:45:53.451Z,6.53
2018-06-25T10:48:21.432Z,6.07
2018-06-25T10:50:49.446Z,7.17
2018-06-25T10:53:17.477Z,7.07
2018-06-25T10:55:45.493Z,5.87
2018-06-25T10:58:13.568Z,6.43
2018-06-25T11:00:41.673Z,7.27
2018-06-25T11:03:09.692Z,6.07
2018-06-25T11:05:37.720Z,5.33
2018-06-25T11:08:05.795Z,5.10
2018-06-25T11:10:33.826Z,6.13
2018-06-25T11:13:01.897Z,5.80
2018-06-25T11:15:29.857Z,6.13
2018-06-25T11:17:57.864Z,5.80
2018-06-25T11:20:25.941Z,6.17
2018-06-25T11:22:53.936Z,5.60
2018-06-25T11:25:21.960Z,5.53
2018-06-25T11:27:50.024Z,5.87
2018-06-25T11:30:18.012Z,7.10
2018-06-25T11:32:47.135Z,5.80
2018-06-25T11:35:15.151Z,5.70
2018-06-25T11:37:43.256Z,5.90
2018-06-25T11:40:11.269Z,5.97
2018-06-25T11:42:39.304Z,6.03
2018-06-25T11:45:07.404Z,6.07
2018-06-25T11:47:35.440Z,5.47
2018-06-25T11:50:03.473Z,5.77
2018-06-25T11:52:31.497Z,5.33
2018-06-25T11:54:59.529Z,6.43
2018-06-25T11:57:27.536Z,6.03
2018-06-25T11:59:55.575Z,5.80
2018-06-25T12:02:23.582Z,6.00
2018-06-25T12:04:51.590Z,5.50
2018-06-25T12:07:19.756Z,7.03
2018-06-25T12:09:47.832Z,6.17
2018-06-25T12:12:15.854Z,5.70
2018-06-25T12:14:43.941Z,6.23
2018-06-25T12:17:12.043Z,5.60
2018-06-25T12:19:40.468Z,6.10
2018-06-25T12:22:08.966Z,6.43
2018-06-25T12:24:37.669Z,6.17
2018-06-25T12:27:05.796Z,5.97
2018-06-25T12:29:33.891Z,6.37
2018-06-25T12:32:02.075Z,7.73
2018-06-25T12:34:30.003Z,6.43
2018-06-25T12:36:58.140Z,6.40
2018-06-25T12:39:26.200Z,7.67
2018-06-25T12:41:54.299Z,5.53
2018-06-25T12:44:22.309Z,6.70
2018-06-25T12:46:50.336Z,5.90
2018-06-25T12:49:18.956Z,5.97
2018-06-25T12:51:46.978Z,5.80
2018-06-25T12:54:14.991Z,6.00
2018-06-25T12:56:43.052Z,5.97
2018-06-25T12:59:11.068Z,6.07
2018-06-25T13:01:39.080Z,5.83
2018-06-25T13:04:07.076Z,5.90
2018-06-25T13:06:35.082Z,5.80
2018-06-25T13:09:03.160Z,5.70
2018-06-25T13:11:31.362Z,4.47
2018-06-25T13:13:59.365Z,5.30
2018-06-25T13:16:27.376Z,5.93
2018-06-25T13:18:55.596Z,5.90
2018-06-25T13:21:24.016Z,5.37
2018-06-25T13:23:52.035Z,6.00
2018-06-25T13:26:20.118Z,6.43
2018-06-25T13:28:48.124Z,5.30
2018-06-25T13:31:16.238Z,5.53
2018-06-25T13:33:44.130Z,7.20
2018-06-25T13:36:12.133Z,6.13
2018-06-25T13:38:40.140Z,5.60
2018-06-25T13:41:08.153Z,5.63
2018-06-25T13:43:36.143Z,5.87
2018-06-25T13:46:04.212Z,5.20
2018-06-25T13:48:32.256Z,5.83
2018-06-25T13:51:00.265Z,6.33
2018-06-25T13:53:28.276Z,5.73
2018-06-25T13:55:56.285Z,6.03
2018-06-25T13:58:24.287Z,5.87
2018-06-25T14:00:52.364Z,6.37
2018-06-25T14:03:20.389Z,6.83
2018-06-25T14:05:48.505Z,6.43
2018-06-25T14:08:16.505Z,6.17
2018-06-25T14:10:44.474Z,6.50
2018-06-25T14:13:12.536Z,5.83
2018-06-25T14:15:40.560Z,7.20
2018-06-25T14:18:08.731Z,7.83
2018-06-25T14:20:36.727Z,6.67
2018-06-25T14:23:04.794Z,6.03
2018-06-25T14:25:38.103Z,6.40
2018-06-25T14:28:11.695Z,5.80
2018-06-25T14:30:45.066Z,5.07
2018-06-25T14:33:13.073Z,5.40
2018-06-25T14:35:41.068Z,6.07
2018-06-25T14:38:09.100Z,5.83
2018-06-25T14:40:37.159Z,4.87
2018-06-25T14:43:05.241Z,6.07
2018-06-25T14:45:33.241Z,4.80
2018-06-25T14:48:01.319Z,5.50
2018-06-25T14:50:29.300Z,5.63
2018-06-25T14:52:57.336Z,3.83
2018-06-25T14:55:25.399Z,4.77
2018-06-25T14:57:53.458Z,4.93
2018-06-25T15:00:22.037Z,4.55
2018-06-25T15:02:51.233Z,4.37
2018-06-25T15:05:19.264Z,4.40
2018-06-25T15:07:47.411Z,3.73
2018-06-25T15:10:15.438Z,4.50
2018-06-25T15:12:43.497Z,4.47
2018-06-25T15:15:11.505Z,5.47
2018-06-25T15:17:39.558Z,4.20
2018-06-25T15:20:07.617Z,4.30
2018-06-25T15:22:35.692Z,4.30
2018-06-25T15:25:03.716Z,4.20
2018-06-25T15:27:31.708Z,4.77
2018-06-25T15:29:59.800Z,5.00
2018-06-25T15:32:30.475Z,5.10
2018-06-25T15:34:58.649Z,4.60
2018-06-25T15:37:26.809Z,5.73
2018-06-25T15:39:54.822Z,5.57
2018-06-25T15:42:22.829Z,4.80
2018-06-25T15:44:50.879Z,4.50
2018-06-25T15:47:18.993Z,4.17
2018-06-25T15:49:47.037Z,5.27
2018-06-25T15:52:15.137Z,4.93
2018-06-25T15:54:43.192Z,5.70
2018-06-25T15:57:11.217Z,4.47
2018-06-25T15:59:39.281Z,4.33
2018-06-25T16:02:07.279Z,4.10
2018-06-25T16:04:35.285Z,5.37
2018-06-25T16:07:03.648Z,4.60
2018-06-25T16:09:31.877Z,5.33
2018-06-25T16:11:59.875Z,5.27
2018-06-25T16:14:28.277Z,6.43
2018-06-25T16:16:56.486Z,5.60
2018-06-25T16:19:24.527Z,4.87
2018-06-25T16:21:52.612Z,4.80
2018-06-25T16:24:20.658Z,5.23
2018-06-25T16:26:48.776Z,5.30
2018-06-25T16:29:16.765Z,5.23
2018-06-25T16:31:44.771Z,5.53
2018-06-25T16:34:12.951Z,5.53
2018-06-25T16:36:41.046Z,5.50
2018-06-25T16:39:11.168Z,5.20
2018-06-25T16:41:39.376Z,5.67
2018-06-25T16:44:07.613Z,5.83
2018-06-25T16:46:35.920Z,3.93
2018-06-25T16:49:04.083Z,5.90
2018-06-25T16:51:32.231Z,5.17
2018-06-25T16:54:00.244Z,5.40
2018-06-25T16:56:28.284Z,5.07
2018-06-25T16:58:56.356Z,6.10
2018-06-25T17:01:24.356Z,6.20
2018-06-25T17:03:52.336Z,6.10
2018-06-25T17:06:20.329Z,5.33
2018-06-25T17:08:48.367Z,5.60
2018-06-25T17:11:16.690Z,4.90
2018-06-25T17:13:44.685Z,5.50
2018-06-25T17:16:12.741Z,5.37
2018-06-25T17:18:40.768Z,5.60
2018-06-25T17:21:08.933Z,5.60
2018-06-25T17:23:36.955Z,5.43
2018-06-25T17:26:05.276Z,8.60
2018-06-25T17:28:33.302Z,6.30
2018-06-25T17:31:01.288Z,5.90
2018-06-25T17:33:29.276Z,6.57
2018-06-25T17:35:57.303Z,6.07
2018-06-25T17:38:25.280Z,6.47
2018-06-25T17:40:53.253Z,8.10
2018-06-25T17:43:22.340Z,5.30
2018-06-25T17:45:50.327Z,7.83
2018-06-25T17:48:18.426Z,5.93
2018-06-25T17:50:46.493Z,6.90
2018-06-25T17:53:14.521Z,6.03
2018-06-25T17:55:42.649Z,5.60
2018-06-25T17:58:10.686Z,5.77
2018-06-25T18:00:38.707Z,6.50
2018-06-25T18:03:06.737Z,5.93
2018-06-25T18:05:34.765Z,5.90
2018-06-25T18:08:02.876Z,5.00
2018-06-25T18:10:30.948Z,5.53
2018-06-25T18:12:59.617Z,6.50
2018-06-25T18:15:27.685Z,5.13
2018-06-25T18:17:55.716Z,5.73
2018-06-25T18:20:23.749Z,5.40
2018-06-25T18:22:51.779Z,6.77
2018-06-25T18:25:19.907Z,8.20
2018-06-25T18:27:47.974Z,6.53
2018-06-25T18:30:16.026Z,5.87
2018-06-25T18:32:44.048Z,5.60
2018-06-25T18:35:12.038Z,7.23
2018-06-25T18:37:40.115Z,6.37
2018-06-25T18:40:08.581Z,6.63
2018-06-25T18:42:36.648Z,7.10
2018-06-25T18:45:04.953Z,8.27
2018-06-25T18:47:33.040Z,9.17
2018-06-25T18:50:01.165Z,8.23
2018-06-25T18:52:29.165Z,7.90
2018-06-25T18:54:57.165Z,7.30
2018-06-25T18:57:25.261Z,9.97
2018-06-25T18:59:53.442Z,9.77
2018-06-25T19:02:21.512Z,9.53
2018-06-25T19:04:49.585Z,9.63
2018-06-25T19:07:17.697Z,9.70
2018-06-25T19:09:45.748Z,9.50
2018-06-25T19:12:13.845Z,10.37
2018-06-25T19:14:41.997Z,9.83
2018-06-25T19:17:09.997Z,10.00
2018-06-25T19:19:38.006Z,8.67
2018-06-25T19:22:06.236Z,9.20
2018-06-25T19:24:34.253Z,9.10
2018-06-25T19:27:02.318Z,8.40
2018-06-25T19:29:30.341Z,8.73
2018-06-25T19:31:58.325Z,8.90
2018-06-25T19:34:26.318Z,10.17
2018-06-25T19:36:54.397Z,9.60
2018-06-25T19:39:22.417Z,8.17
2018-06-25T19:41:50.417Z,8.10
2018-06-25T19:44:18.426Z,9.30
2018-06-25T19:46:46.429Z,9.80
2018-06-25T19:49:14.459Z,9.40
2018-06-25T19:51:42.534Z,8.90
2018-06-25T19:54:10.609Z,10.23
2018-06-25T19:56:39.711Z,9.90
2018-06-25T19:59:07.709Z,8.40
2018-06-25T20:01:35.827Z,8.80
2018-06-25T20:04:03.818Z,9.20
2018-06-25T20:06:31.833Z,8.10
2018-06-25T20:08:59.933Z,7.27
2018-06-25T20:11:28.005Z,8.40
2018-06-25T20:13:56.009Z,7.77
2018-06-25T20:16:24.009Z,8.20
2018-06-25T20:18:52.156Z,8.70
2018-06-25T20:21:20.160Z,8.20
2018-06-25T20:23:48.155Z,7.80
2018-06-25T20:26:16.220Z,8.23
2018-06-25T20:28:44.229Z,8.83
2018-06-25T20:31:12.270Z,8.30
2018-06-25T20:33:40.441Z,8.30
2018-06-25T20:36:08.452Z,7.63
2018-06-25T20:38:36.455Z,7.10
2018-06-25T20:41:04.496Z,7.40
2018-06-25T20:43:32.497Z,7.60
2018-06-25T20:46:00.639Z,7.23
2018-06-25T20:48:28.668Z,7.23
2018-06-25T20:50:56.737Z,8.17
2018-06-25T20:53:24.934Z,7.20
2018-06-25T20:55:52.821Z,7.50
2018-06-25T20:58:20.858Z,7.70
2018-06-25T21:00:48.912Z,8.20
2018-06-25T21:03:16.960Z,8.20
2018-06-25T21:05:44.972Z,8.47
2018-06-25T21:08:13.005Z,9.77
2018-06-25T21:10:41.005Z,9.20
2018-06-25T21:13:08.993Z,9.20
2018-06-25T21:15:36.981Z,9.73
2018-06-25T21:18:04.972Z,9.73
2018-06-25T21:20:32.994Z,9.57
2018-06-25T21:23:00.993Z,9.30
2018-06-25T21:25:29.154Z,7.67
2018-06-25T21:27:57.104Z,8.97
2018-06-25T21:30:25.306Z,7.80
2018-06-25T21:32:53.288Z,8.50
2018-06-25T21:35:21.288Z,8.20
2018-06-25T21:37:49.264Z,8.90
2018-06-25T21:40:17.267Z,8.37
2018-06-25T21:42:45.258Z,7.63
2018-06-25T21:45:13.253Z,7.50
2018-06-25T21:47:41.345Z,8.17
2018-06-25T21:50:09.350Z,7.13
2018-06-25T21:52:37.321Z,8.23
2018-06-25T21:55:05.534Z,7.67
2018-06-25T21:57:33.597Z,8.33
2018-06-25T22:00:01.604Z,9.10
2018-06-25T22:02:29.692Z,7.10
2018-06-25T22:04:57.714Z,8.13
2018-06-25T22:07:25.711Z,8.67
2018-06-25T22:09:53.713Z,8.30
2018-06-25T22:12:21.734Z,8.70
2018-06-25T22:14:49.717Z,9.87
2018-06-25T22:17:17.704Z,8.67
2018-06-25T22:19:45.792Z,9.30
2018-06-25T22:22:13.796Z,8.53
2018-06-25T22:24:41.795Z,9.03
2018-06-25T22:27:09.862Z,9.17
2018-06-25T22:29:37.867Z,9.13
2018-06-25T22:32:05.860Z,8.57
2018-06-25T22:34:33.954Z,10.63
2018-06-25T22:37:02.996Z,8.97
2018-06-25T22:39:31.018Z,8.87
2018-06-25T22:41:59.056Z,9.37
2018-06-25T22:44:27.067Z,9.83
2018-06-25T22:46:55.608Z,9.27
2018-06-25T22:49:23.603Z,10.20
2018-06-25T22:51:51.577Z,10.13
2018-06-25T22:54:19.577Z,10.40
2018-06-25T22:56:48.624Z,10.70
2018-06-25T22:59:16.632Z,11.00
2018-06-25T23:01:44.650Z,12.00
2018-06-25T23:04:12.635Z,12.67
2018-06-25T23:06:40.638Z,13.60
2018-06-25T23:09:09.829Z,12.53
2018-06-25T23:11:37.856Z,12.50
2018-06-25T23:14:05.833Z,12.53
2018-06-25T23:16:33.893Z,11.40
2018-06-25T23:19:01.924Z,11.20
2018-06-25T23:21:29.949Z,10.63
2018-06-25T23:23:57.952Z,12.80
2018-06-25T23:26:25.973Z,12.20
2018-06-25T23:28:54.076Z,10.27
2018-06-25T23:31:22.097Z,11.07
2018-06-25T23:33:50.107Z,11.77
2018-06-25T23:36:18.114Z,10.60
2018-06-25T23:38:46.197Z,9.87
2018-06-25T23:41:14.432Z,11.93
2018-06-25T23:43:42.460Z,10.23
2018-06-25T23:46:10.540Z,11.00
2018-06-25T23:48:38.587Z,9.83
2018-06-25T23:51:06.621Z,10.00
2018-06-25T23:53:34.616Z,10.70
2018-06-25T23:56:02.625Z,10.37
2018-06-25T23:58:30.724Z,9.60
